sensor_id;sensor_type;location;lat;lon;timestamp;P1;durP1;ratioP1;P2;durP2;ratioP2
16845;SDS011;8539;53.188;8.696;2023-07-30T02:05:48;10.00;;;8.23;;
16845;SDS011;8539;53.188;8.696;2023-07-30T02:08:23;8.18;;;7.07;;
16845;SDS011;8539;53.188;8.696;2023-07-30T02:10:56;7.93;;;6.88;;
16845;SDS011;8539;53.188;8.696;2023-07-30T02:13:23;10.40;;;6.13;;
16845;SDS011;8539;53.188;8.696;2023-07-30T02:15:49;13.38;;;7.90;;
16845;SDS011;8539;53.188;8.696;2023-07-30T02:18:15;10.02;;;7.80;;
16845;SDS011;8539;53.188;8.696;2023-07-30T02:20:41;9.13;;;7.18;;
16845;SDS011;8539;53.188;8.696;2023-07-30T02:23:07;14.05;;;7.15;;
16845;SDS011;8539;53.188;8.696;2023-07-30T02:25:34;10.88;;;6.90;;
16845;SDS011;8539;53.188;8.696;2023-07-30T02:28:00;11.35;;;6.45;;
16845;SDS011;8539;53.188;8.696;2023-07-30T02:30:27;9.85;;;6.97;;
16845;SDS011;8539;53.188;8.696;2023-07-30T02:32:54;14.10;;;8.05;;
16845;SDS011;8539;53.188;8.696;2023-07-30T02:35:20;10.75;;;6.28;;
16845;SDS011;8539;53.188;8.696;2023-07-30T02:37:46;12.27;;;7.45;;
16845;SDS011;8539;53.188;8.696;2023-07-30T02:40:12;42.47;;;8.70;;
16845;SDS011;8539;53.188;8.696;2023-07-30T02:42:38;13.10;;;7.35;;
16845;SDS011;8539;53.188;8.696;2023-07-30T02:45:04;10.10;;;6.22;;
16845;SDS011;8539;53.188;8.696;2023-07-30T02:47:31;12.23;;;6.63;;
16845;SDS011;8539;53.188;8.696;2023-07-30T02:50:00;12.18;;;7.40;;
16845;SDS011;8539;53.188;8.696;2023-07-30T02:52:28;11.50;;;6.20;;
16845;SDS011;8539;53.188;8.696;2023-07-30T02:54:54;10.35;;;7.63;;
16845;SDS011;8539;53.188;8.696;2023-07-30T03:02:58;9.55;;;7.15;;
16845;SDS011;8539;53.188;8.696;2023-07-30T03:05:25;10.45;;;7.93;;
16845;SDS011;8539;53.188;8.696;2023-07-30T03:07:53;16.85;;;7.20;;
16845;SDS011;8539;53.188;8.696;2023-07-30T03:10:40;9.82;;;6.95;;
16845;SDS011;8539;53.188;8.696;2023-07-30T03:13:10;11.82;;;6.53;;
16845;SDS011;8539;53.188;8.696;2023-07-30T03:18:52;23.70;;;8.70;;
16845;SDS011;8539;53.188;8.696;2023-07-30T03:21:18;14.27;;;7.97;;
16845;SDS011;8539;53.188;8.696;2023-07-30T03:24:23;11.43;;;7.75;;
16845;SDS011;8539;53.188;8.696;2023-07-30T03:26:59;13.43;;;7.90;;
16845;SDS011;8539;53.188;8.696;2023-07-30T03:29:39;12.32;;;8.02;;
16845;SDS011;8539;53.188;8.696;2023-07-30T03:34:41;11.07;;;6.80;;
16845;SDS011;8539;53.188;8.696;2023-07-30T03:37:21;13.27;;;7.95;;
16845;SDS011;8539;53.188;8.696;2023-07-30T03:39:50;17.90;;;7.97;;
16845;SDS011;8539;53.188;8.696;2023-07-30T03:42:22;11.57;;;6.95;;
16845;SDS011;8539;53.188;8.696;2023-07-30T03:45:24;9.35;;;7.68;;
16845;SDS011;8539;53.188;8.696;2023-07-30T03:48:13;14.05;;;7.72;;
16845;SDS011;8539;53.188;8.696;2023-07-30T03:50:41;12.05;;;6.70;;
16845;SDS011;8539;53.188;8.696;2023-07-30T03:55:43;10.27;;;7.22;;
16845;SDS011;8539;53.188;8.696;2023-07-30T03:58:26;11.52;;;7.18;;
16845;SDS011;8539;53.188;8.696;2023-07-30T04:00:53;15.40;;;7.90;;
16845;SDS011;8539;53.188;8.696;2023-07-30T04:03:22;12.95;;;7.38;;
16845;SDS011;8539;53.188;8.696;2023-07-30T04:05:48;17.52;;;6.85;;
16845;SDS011;8539;53.188;8.696;2023-07-30T04:08:18;14.20;;;6.60;;
16845;SDS011;8539;53.188;8.696;2023-07-30T04:10:49;8.50;;;5.68;;
16845;SDS011;8539;53.188;8.696;2023-07-30T04:13:15;15.52;;;6.32;;
16845;SDS011;8539;53.188;8.696;2023-07-30T04:15:42;12.52;;;6.63;;
16845;SDS011;8539;53.188;8.696;2023-07-30T04:18:08;15.40;;;6.13;;
16845;SDS011;8539;53.188;8.696;2023-07-30T04:20:34;12.75;;;6.95;;
16845;SDS011;8539;53.188;8.696;2023-07-30T04:23:19;14.13;;;6.20;;
16845;SDS011;8539;53.188;8.696;2023-07-30T04:25:45;14.32;;;5.82;;
16845;SDS011;8539;53.188;8.696;2023-07-30T04:28:21;23.65;;;7.85;;
16845;SDS011;8539;53.188;8.696;2023-07-30T04:30:58;15.10;;;5.22;;
16845;SDS011;8539;53.188;8.696;2023-07-30T04:33:29;15.32;;;5.50;;
16845;SDS011;8539;53.188;8.696;2023-07-30T04:36:03;11.60;;;5.38;;
16845;SDS011;8539;53.188;8.696;2023-07-30T04:38:32;19.05;;;6.15;;
16845;SDS011;8539;53.188;8.696;2023-07-30T04:40:58;12.98;;;5.47;;
16845;SDS011;8539;53.188;8.696;2023-07-30T04:43:30;14.75;;;4.97;;
16845;SDS011;8539;53.188;8.696;2023-07-30T04:46:06;13.95;;;5.18;;
16845;SDS011;8539;53.188;8.696;2023-07-30T04:48:36;13.02;;;5.35;;
16845;SDS011;8539;53.188;8.696;2023-07-30T04:51:06;21.33;;;5.78;;
16845;SDS011;8539;53.188;8.696;2023-07-30T04:56:17;8.73;;;4.85;;
16845;SDS011;8539;53.188;8.696;2023-07-30T04:58:52;10.50;;;5.97;;
16845;SDS011;8539;53.188;8.696;2023-07-30T05:01:28;14.45;;;6.07;;
16845;SDS011;8539;53.188;8.696;2023-07-30T05:04:23;11.63;;;5.43;;
16845;SDS011;8539;53.188;8.696;2023-07-30T05:06:50;21.77;;;4.78;;
16845;SDS011;8539;53.188;8.696;2023-07-30T05:09:16;15.88;;;5.47;;
16845;SDS011;8539;53.188;8.696;2023-07-30T05:11:42;9.27;;;4.20;;
16845;SDS011;8539;53.188;8.696;2023-07-30T05:17:39;12.48;;;5.10;;
16845;SDS011;8539;53.188;8.696;2023-07-30T05:24:52;9.02;;;4.72;;
16845;SDS011;8539;53.188;8.696;2023-07-30T05:27:18;13.27;;;4.60;;
16845;SDS011;8539;53.188;8.696;2023-07-30T05:29:45;11.80;;;4.35;;
16845;SDS011;8539;53.188;8.696;2023-07-30T05:32:11;12.50;;;4.72;;
16845;SDS011;8539;53.188;8.696;2023-07-30T05:34:38;14.27;;;4.60;;
16845;SDS011;8539;53.188;8.696;2023-07-30T05:37:04;20.10;;;5.05;;
16845;SDS011;8539;53.188;8.696;2023-07-30T05:39:30;13.38;;;4.88;;
16845;SDS011;8539;53.188;8.696;2023-07-30T05:41:56;12.30;;;4.63;;
16845;SDS011;8539;53.188;8.696;2023-07-30T05:44:22;8.27;;;4.00;;
16845;SDS011;8539;53.188;8.696;2023-07-30T05:46:48;14.07;;;5.05;;
16845;SDS011;8539;53.188;8.696;2023-07-30T05:49:14;11.85;;;3.90;;
16845;SDS011;8539;53.188;8.696;2023-07-30T05:51:40;9.60;;;4.00;;
16845;SDS011;8539;53.188;8.696;2023-07-30T05:54:07;9.05;;;3.92;;
16845;SDS011;8539;53.188;8.696;2023-07-30T05:56:33;8.82;;;4.13;;
16845;SDS011;8539;53.188;8.696;2023-07-30T05:58:59;11.43;;;4.50;;
16845;SDS011;8539;53.188;8.696;2023-07-30T06:04:01;10.25;;;4.18;;
16845;SDS011;8539;53.188;8.696;2023-07-30T06:06:27;9.32;;;3.78;;
16845;SDS011;8539;53.188;8.696;2023-07-30T06:08:54;10.63;;;4.20;;
16845;SDS011;8539;53.188;8.696;2023-07-30T06:11:20;8.15;;;4.00;;
16845;SDS011;8539;53.188;8.696;2023-07-30T06:13:46;9.98;;;4.00;;
16845;SDS011;8539;53.188;8.696;2023-07-30T06:16:13;9.88;;;3.47;;
16845;SDS011;8539;53.188;8.696;2023-07-30T06:18:39;10.05;;;4.05;;
16845;SDS011;8539;53.188;8.696;2023-07-30T06:21:05;11.40;;;5.18;;
16845;SDS011;8539;53.188;8.696;2023-07-30T06:23:32;6.38;;;4.07;;
16845;SDS011;8539;53.188;8.696;2023-07-30T06:28:50;12.20;;;4.47;;
16845;SDS011;8539;53.188;8.696;2023-07-30T06:31:19;10.40;;;4.68;;
16845;SDS011;8539;53.188;8.696;2023-07-30T06:34:07;16.55;;;4.63;;
16845;SDS011;8539;53.188;8.696;2023-07-30T06:37:19;18.17;;;5.15;;
16845;SDS011;8539;53.188;8.696;2023-07-30T06:39:51;16.83;;;5.57;;
16845;SDS011;8539;53.188;8.696;2023-07-30T06:42:17;10.55;;;5.05;;
16845;SDS011;8539;53.188;8.696;2023-07-30T06:44:43;13.38;;;4.50;;
16845;SDS011;8539;53.188;8.696;2023-07-30T06:47:09;11.20;;;4.38;;
16845;SDS011;8539;53.188;8.696;2023-07-30T06:49:45;14.27;;;5.18;;
16845;SDS011;8539;53.188;8.696;2023-07-30T06:52:11;9.63;;;5.15;;
16845;SDS011;8539;53.188;8.696;2023-07-30T06:54:38;12.10;;;5.95;;
16845;SDS011;8539;53.188;8.696;2023-07-30T06:57:10;13.18;;;5.35;;
16845;SDS011;8539;53.188;8.696;2023-07-30T06:59:42;15.00;;;4.90;;
16845;SDS011;8539;53.188;8.696;2023-07-30T07:02:14;18.83;;;4.78;;
16845;SDS011;8539;53.188;8.696;2023-07-30T07:04:48;20.08;;;5.35;;
16845;SDS011;8539;53.188;8.696;2023-07-30T07:07:14;14.85;;;5.22;;
16845;SDS011;8539;53.188;8.696;2023-07-30T07:09:51;15.77;;;5.63;;
16845;SDS011;8539;53.188;8.696;2023-07-30T07:12:17;17.25;;;5.97;;
16845;SDS011;8539;53.188;8.696;2023-07-30T07:14:43;15.30;;;5.40;;
16845;SDS011;8539;53.188;8.696;2023-07-30T07:17:11;14.50;;;5.47;;
16845;SDS011;8539;53.188;8.696;2023-07-30T07:19:43;15.07;;;5.78;;
16845;SDS011;8539;53.188;8.696;2023-07-30T07:22:10;20.17;;;5.88;;
16845;SDS011;8539;53.188;8.696;2023-07-30T07:24:36;16.20;;;5.78;;
16845;SDS011;8539;53.188;8.696;2023-07-30T07:27:02;20.67;;;6.18;;
16845;SDS011;8539;53.188;8.696;2023-07-30T07:29:29;13.10;;;5.22;;
16845;SDS011;8539;53.188;8.696;2023-07-30T07:31:55;17.02;;;5.72;;
16845;SDS011;8539;53.188;8.696;2023-07-30T07:34:21;24.08;;;7.03;;
16845;SDS011;8539;53.188;8.696;2023-07-30T07:36:48;15.15;;;4.95;;
16845;SDS011;8539;53.188;8.696;2023-07-30T07:39:14;14.63;;;5.95;;
16845;SDS011;8539;53.188;8.696;2023-07-30T07:41:40;20.10;;;5.80;;
16845;SDS011;8539;53.188;8.696;2023-07-30T07:44:06;21.38;;;5.05;;
16845;SDS011;8539;53.188;8.696;2023-07-30T07:46:32;13.10;;;4.88;;
16845;SDS011;8539;53.188;8.696;2023-07-30T07:48:58;13.82;;;4.25;;
16845;SDS011;8539;53.188;8.696;2023-07-30T07:51:25;14.48;;;4.47;;
16845;SDS011;8539;53.188;8.696;2023-07-30T07:53:51;13.52;;;5.72;;
16845;SDS011;8539;53.188;8.696;2023-07-30T07:56:17;16.92;;;5.30;;
16845;SDS011;8539;53.188;8.696;2023-07-30T07:58:43;13.30;;;3.72;;
16845;SDS011;8539;53.188;8.696;2023-07-30T08:01:09;8.98;;;3.97;;
16845;SDS011;8539;53.188;8.696;2023-07-30T08:03:36;12.23;;;4.78;;
16845;SDS011;8539;53.188;8.696;2023-07-30T08:06:02;12.90;;;4.32;;
16845;SDS011;8539;53.188;8.696;2023-07-30T08:08:28;17.25;;;4.53;;
16845;SDS011;8539;53.188;8.696;2023-07-30T08:10:54;19.08;;;4.65;;
16845;SDS011;8539;53.188;8.696;2023-07-30T08:13:20;15.57;;;4.40;;
16845;SDS011;8539;53.188;8.696;2023-07-30T08:15:46;10.15;;;3.83;;
16845;SDS011;8539;53.188;8.696;2023-07-30T08:18:12;14.57;;;3.60;;
16845;SDS011;8539;53.188;8.696;2023-07-30T08:20:40;10.32;;;3.22;;
16845;SDS011;8539;53.188;8.696;2023-07-30T08:23:06;9.95;;;4.20;;
16845;SDS011;8539;53.188;8.696;2023-07-30T08:25:35;13.50;;;3.72;;
16845;SDS011;8539;53.188;8.696;2023-07-30T08:28:10;15.07;;;5.28;;
16845;SDS011;8539;53.188;8.696;2023-07-30T08:30:36;14.45;;;5.00;;
16845;SDS011;8539;53.188;8.696;2023-07-30T08:33:02;12.40;;;4.30;;
16845;SDS011;8539;53.188;8.696;2023-07-30T08:35:28;13.27;;;4.03;;
16845;SDS011;8539;53.188;8.696;2023-07-30T08:37:54;7.40;;;3.85;;
16845;SDS011;8539;53.188;8.696;2023-07-30T08:40:21;14.35;;;4.60;;
16845;SDS011;8539;53.188;8.696;2023-07-30T08:42:50;11.57;;;3.78;;
16845;SDS011;8539;53.188;8.696;2023-07-30T08:45:17;12.10;;;4.38;;
16845;SDS011;8539;53.188;8.696;2023-07-30T08:47:47;12.45;;;3.88;;
16845;SDS011;8539;53.188;8.696;2023-07-30T08:50:13;12.48;;;3.65;;
16845;SDS011;8539;53.188;8.696;2023-07-30T08:52:40;11.65;;;4.25;;
16845;SDS011;8539;53.188;8.696;2023-07-30T08:55:07;10.95;;;4.20;;
16845;SDS011;8539;53.188;8.696;2023-07-30T08:57:33;13.82;;;5.68;;
16845;SDS011;8539;53.188;8.696;2023-07-30T09:00:11;12.02;;;4.20;;
16845;SDS011;8539;53.188;8.696;2023-07-30T09:05:12;14.07;;;5.03;;
16845;SDS011;8539;53.188;8.696;2023-07-30T09:07:38;14.57;;;5.40;;
16845;SDS011;8539;53.188;8.696;2023-07-30T09:10:05;11.75;;;5.57;;
16845;SDS011;8539;53.188;8.696;2023-07-30T09:12:33;15.05;;;5.03;;
16845;SDS011;8539;53.188;8.696;2023-07-30T09:15:01;12.25;;;5.47;;
16845;SDS011;8539;53.188;8.696;2023-07-30T09:17:30;14.88;;;5.95;;
16845;SDS011;8539;53.188;8.696;2023-07-30T09:19:58;15.48;;;7.50;;
16845;SDS011;8539;53.188;8.696;2023-07-30T09:22:26;11.43;;;5.43;;
16845;SDS011;8539;53.188;8.696;2023-07-30T09:24:56;14.57;;;6.78;;
16845;SDS011;8539;53.188;8.696;2023-07-30T09:27:23;16.65;;;5.97;;
16845;SDS011;8539;53.188;8.696;2023-07-30T09:29:55;19.92;;;6.53;;
16845;SDS011;8539;53.188;8.696;2023-07-30T09:32:28;20.83;;;5.80;;
16845;SDS011;8539;53.188;8.696;2023-07-30T09:35:09;17.15;;;6.03;;
16845;SDS011;8539;53.188;8.696;2023-07-30T09:37:37;17.27;;;6.53;;
16845;SDS011;8539;53.188;8.696;2023-07-30T09:40:05;20.00;;;6.45;;
16845;SDS011;8539;53.188;8.696;2023-07-30T09:42:33;13.38;;;5.47;;
16845;SDS011;8539;53.188;8.696;2023-07-30T09:45:00;15.00;;;5.47;;
16845;SDS011;8539;53.188;8.696;2023-07-30T09:47:27;18.70;;;5.85;;
16845;SDS011;8539;53.188;8.696;2023-07-30T09:49:55;13.00;;;5.97;;
16845;SDS011;8539;53.188;8.696;2023-07-30T09:52:22;15.10;;;5.03;;
16845;SDS011;8539;53.188;8.696;2023-07-30T09:54:51;17.00;;;5.57;;
16845;SDS011;8539;53.188;8.696;2023-07-30T09:57:18;10.65;;;4.70;;
16845;SDS011;8539;53.188;8.696;2023-07-30T09:59:44;14.98;;;4.97;;
16845;SDS011;8539;53.188;8.696;2023-07-30T10:02:10;14.48;;;5.53;;
16845;SDS011;8539;53.188;8.696;2023-07-30T10:04:42;11.73;;;4.80;;
16845;SDS011;8539;53.188;8.696;2023-07-30T10:07:10;20.52;;;4.95;;
16845;SDS011;8539;53.188;8.696;2023-07-30T10:09:40;13.65;;;4.55;;
16845;SDS011;8539;53.188;8.696;2023-07-30T10:12:18;12.63;;;4.85;;
16845;SDS011;8539;53.188;8.696;2023-07-30T10:14:47;13.60;;;4.78;;
16845;SDS011;8539;53.188;8.696;2023-07-30T10:17:14;11.55;;;4.85;;
16845;SDS011;8539;53.188;8.696;2023-07-30T10:19:44;14.63;;;4.22;;
16845;SDS011;8539;53.188;8.696;2023-07-30T10:24:40;6.85;;;2.85;;
16845;SDS011;8539;53.188;8.696;2023-07-30T10:27:07;6.88;;;2.03;;
16845;SDS011;8539;53.188;8.696;2023-07-30T10:29:35;12.05;;;3.35;;
16845;SDS011;8539;53.188;8.696;2023-07-30T10:32:04;8.75;;;3.10;;
16845;SDS011;8539;53.188;8.696;2023-07-30T10:34:43;9.20;;;3.00;;
16845;SDS011;8539;53.188;8.696;2023-07-30T10:37:11;9.02;;;3.58;;
16845;SDS011;8539;53.188;8.696;2023-07-30T10:39:44;8.23;;;3.00;;
16845;SDS011;8539;53.188;8.696;2023-07-30T10:42:14;8.38;;;2.95;;
16845;SDS011;8539;53.188;8.696;2023-07-30T10:44:43;5.30;;;2.85;;
16845;SDS011;8539;53.188;8.696;2023-07-30T10:47:09;14.90;;;3.47;;
16845;SDS011;8539;53.188;8.696;2023-07-30T10:49:37;8.43;;;3.38;;
16845;SDS011;8539;53.188;8.696;2023-07-30T10:52:04;12.75;;;3.38;;
16845;SDS011;8539;53.188;8.696;2023-07-30T10:54:33;9.27;;;3.38;;
16845;SDS011;8539;53.188;8.696;2023-07-30T10:57:02;10.25;;;4.18;;
16845;SDS011;8539;53.188;8.696;2023-07-30T10:59:35;11.07;;;3.42;;
16845;SDS011;8539;53.188;8.696;2023-07-30T11:02:03;10.63;;;4.43;;
16845;SDS011;8539;53.188;8.696;2023-07-30T11:04:29;12.32;;;3.35;;
16845;SDS011;8539;53.188;8.696;2023-07-30T11:06:59;14.75;;;4.15;;
16845;SDS011;8539;53.188;8.696;2023-07-30T11:09:26;12.93;;;4.25;;
16845;SDS011;8539;53.188;8.696;2023-07-30T11:11:53;10.10;;;3.15;;
16845;SDS011;8539;53.188;8.696;2023-07-30T11:14:22;10.27;;;3.67;;
16845;SDS011;8539;53.188;8.696;2023-07-30T11:16:55;10.52;;;3.22;;
16845;SDS011;8539;53.188;8.696;2023-07-30T11:19:27;7.07;;;3.00;;
16845;SDS011;8539;53.188;8.696;2023-07-30T11:21:55;7.97;;;2.83;;
16845;SDS011;8539;53.188;8.696;2023-07-30T11:24:32;11.80;;;2.72;;
16845;SDS011;8539;53.188;8.696;2023-07-30T11:27:02;9.05;;;3.10;;
16845;SDS011;8539;53.188;8.696;2023-07-30T11:29:29;8.10;;;3.22;;
16845;SDS011;8539;53.188;8.696;2023-07-30T11:31:56;7.20;;;3.13;;
16845;SDS011;8539;53.188;8.696;2023-07-30T11:34:23;7.13;;;3.00;;
16845;SDS011;8539;53.188;8.696;2023-07-30T11:36:51;6.88;;;2.90;;
16845;SDS011;8539;53.188;8.696;2023-07-30T11:39:18;6.00;;;3.42;;
16845;SDS011;8539;53.188;8.696;2023-07-30T11:41:44;10.68;;;3.00;;
16845;SDS011;8539;53.188;8.696;2023-07-30T11:44:30;10.15;;;3.22;;
16845;SDS011;8539;53.188;8.696;2023-07-30T11:47:03;12.70;;;3.78;;
16845;SDS011;8539;53.188;8.696;2023-07-30T11:49:30;13.98;;;3.97;;
16845;SDS011;8539;53.188;8.696;2023-07-30T11:52:09;9.02;;;4.18;;
16845;SDS011;8539;53.188;8.696;2023-07-30T11:54:36;6.40;;;2.25;;
16845;SDS011;8539;53.188;8.696;2023-07-30T12:00:04;8.00;;;1.90;;
16845;SDS011;8539;53.188;8.696;2023-07-30T12:02:33;3.75;;;1.60;;
16845;SDS011;8539;53.188;8.696;2023-07-30T12:04:59;7.97;;;1.83;;
16845;SDS011;8539;53.188;8.696;2023-07-30T12:07:26;6.10;;;2.28;;
16845;SDS011;8539;53.188;8.696;2023-07-30T12:09:52;3.60;;;1.83;;
16845;SDS011;8539;53.188;8.696;2023-07-30T12:12:18;3.33;;;1.50;;
16845;SDS011;8539;53.188;8.696;2023-07-30T12:14:52;5.18;;;2.05;;
16845;SDS011;8539;53.188;8.696;2023-07-30T12:17:19;4.53;;;2.17;;
16845;SDS011;8539;53.188;8.696;2023-07-30T12:19:47;4.30;;;2.63;;
16845;SDS011;8539;53.188;8.696;2023-07-30T12:22:13;5.85;;;1.90;;
16845;SDS011;8539;53.188;8.696;2023-07-30T12:24:40;3.47;;;1.42;;
16845;SDS011;8539;53.188;8.696;2023-07-30T12:27:06;13.77;;;1.85;;
16845;SDS011;8539;53.188;8.696;2023-07-30T12:29:36;5.10;;;1.98;;
16845;SDS011;8539;53.188;8.696;2023-07-30T12:32:02;4.30;;;1.83;;
16845;SDS011;8539;53.188;8.696;2023-07-30T12:34:28;7.65;;;2.28;;
16845;SDS011;8539;53.188;8.696;2023-07-30T12:36:55;7.47;;;1.77;;
16845;SDS011;8539;53.188;8.696;2023-07-30T12:39:25;6.05;;;2.17;;
16845;SDS011;8539;53.188;8.696;2023-07-30T12:41:51;7.80;;;2.33;;
16845;SDS011;8539;53.188;8.696;2023-07-30T12:44:17;4.55;;;2.10;;
16845;SDS011;8539;53.188;8.696;2023-07-30T12:46:43;3.90;;;2.03;;
16845;SDS011;8539;53.188;8.696;2023-07-30T12:49:13;4.55;;;2.15;;
16845;SDS011;8539;53.188;8.696;2023-07-30T12:51:43;7.05;;;2.40;;
16845;SDS011;8539;53.188;8.696;2023-07-30T12:54:22;6.63;;;2.25;;
16845;SDS011;8539;53.188;8.696;2023-07-30T12:56:50;6.03;;;2.13;;
16845;SDS011;8539;53.188;8.696;2023-07-30T12:59:16;7.53;;;1.98;;
16845;SDS011;8539;53.188;8.696;2023-07-30T13:01:42;9.68;;;3.03;;
16845;SDS011;8539;53.188;8.696;2023-07-30T13:04:08;5.97;;;2.40;;
16845;SDS011;8539;53.188;8.696;2023-07-30T13:06:34;3.08;;;1.70;;
16845;SDS011;8539;53.188;8.696;2023-07-30T13:09:03;8.82;;;2.13;;
16845;SDS011;8539;53.188;8.696;2023-07-30T13:11:29;5.60;;;2.30;;
16845;SDS011;8539;53.188;8.696;2023-07-30T13:13:55;6.60;;;2.20;;
16845;SDS011;8539;53.188;8.696;2023-07-30T13:16:21;9.98;;;4.03;;
16845;SDS011;8539;53.188;8.696;2023-07-30T13:21:35;6.53;;;2.10;;
16845;SDS011;8539;53.188;8.696;2023-07-30T13:24:50;9.18;;;2.13;;
16845;SDS011;8539;53.188;8.696;2023-07-30T13:27:22;6.82;;;2.13;;
16845;SDS011;8539;53.188;8.696;2023-07-30T13:29:48;9.57;;;2.35;;
16845;SDS011;8539;53.188;8.696;2023-07-30T13:32:15;7.30;;;2.72;;
16845;SDS011;8539;53.188;8.696;2023-07-30T13:34:41;6.15;;;2.25;;
16845;SDS011;8539;53.188;8.696;2023-07-30T13:37:07;7.65;;;2.30;;
16845;SDS011;8539;53.188;8.696;2023-07-30T13:39:33;7.47;;;2.35;;
16845;SDS011;8539;53.188;8.696;2023-07-30T13:42:01;5.30;;;2.08;;
16845;SDS011;8539;53.188;8.696;2023-07-30T13:44:27;9.30;;;2.58;;
16845;SDS011;8539;53.188;8.696;2023-07-30T13:46:53;12.23;;;2.50;;
16845;SDS011;8539;53.188;8.696;2023-07-30T13:49:19;8.80;;;2.97;;
16845;SDS011;8539;53.188;8.696;2023-07-30T13:51:46;5.05;;;2.15;;
16845;SDS011;8539;53.188;8.696;2023-07-30T13:54:12;11.20;;;2.45;;
16845;SDS011;8539;53.188;8.696;2023-07-30T13:56:38;13.55;;;2.13;;
16845;SDS011;8539;53.188;8.696;2023-07-30T13:59:05;6.40;;;2.50;;
16845;SDS011;8539;53.188;8.696;2023-07-30T14:01:31;6.28;;;2.08;;
16845;SDS011;8539;53.188;8.696;2023-07-30T14:03:57;4.53;;;2.63;;
16845;SDS011;8539;53.188;8.696;2023-07-30T14:06:24;9.77;;;2.00;;
16845;SDS011;8539;53.188;8.696;2023-07-30T14:08:50;4.78;;;2.00;;
16845;SDS011;8539;53.188;8.696;2023-07-30T14:11:16;7.38;;;1.83;;
16845;SDS011;8539;53.188;8.696;2023-07-30T14:13:42;5.93;;;2.00;;
16845;SDS011;8539;53.188;8.696;2023-07-30T14:16:10;5.68;;;1.90;;
16845;SDS011;8539;53.188;8.696;2023-07-30T14:18:36;7.30;;;2.03;;
16845;SDS011;8539;53.188;8.696;2023-07-30T14:21:03;3.47;;;1.98;;
16845;SDS011;8539;53.188;8.696;2023-07-30T14:23:29;7.32;;;2.03;;
16845;SDS011;8539;53.188;8.696;2023-07-30T14:25:55;8.18;;;2.38;;
16845;SDS011;8539;53.188;8.696;2023-07-30T14:28:21;8.23;;;3.10;;
16845;SDS011;8539;53.188;8.696;2023-07-30T14:30:47;5.93;;;1.70;;
16845;SDS011;8539;53.188;8.696;2023-07-30T14:33:13;5.32;;;1.83;;
16845;SDS011;8539;53.188;8.696;2023-07-30T14:39:12;4.38;;;1.20;;
16845;SDS011;8539;53.188;8.696;2023-07-30T14:42:07;4.88;;;1.30;;
16845;SDS011;8539;53.188;8.696;2023-07-30T14:44:41;3.35;;;1.48;;
16845;SDS011;8539;53.188;8.696;2023-07-30T14:47:07;4.85;;;1.63;;
16845;SDS011;8539;53.188;8.696;2023-07-30T14:49:39;4.97;;;1.35;;
16845;SDS011;8539;53.188;8.696;2023-07-30T14:58:28;4.35;;;1.58;;
16845;SDS011;8539;53.188;8.696;2023-07-30T15:11:35;8.77;;;1.60;;
16845;SDS011;8539;53.188;8.696;2023-07-30T15:14:04;3.75;;;1.27;;
16845;SDS011;8539;53.188;8.696;2023-07-30T15:16:30;4.03;;;1.25;;
16845;SDS011;8539;53.188;8.696;2023-07-30T15:18:58;4.15;;;1.55;;
16845;SDS011;8539;53.188;8.696;2023-07-30T15:21:25;5.13;;;1.33;;
16845;SDS011;8539;53.188;8.696;2023-07-30T15:23:51;2.22;;;1.00;;
16845;SDS011;8539;53.188;8.696;2023-07-30T15:26:17;3.85;;;1.27;;
16845;SDS011;8539;53.188;8.696;2023-07-30T15:28:43;4.10;;;1.70;;
16845;SDS011;8539;53.188;8.696;2023-07-30T15:31:09;4.38;;;1.67;;
16845;SDS011;8539;53.188;8.696;2023-07-30T15:33:35;3.70;;;1.20;;
16845;SDS011;8539;53.188;8.696;2023-07-30T15:36:01;6.22;;;2.00;;
16845;SDS011;8539;53.188;8.696;2023-07-30T15:38:27;4.47;;;1.20;;
16845;SDS011;8539;53.188;8.696;2023-07-30T15:40:53;4.57;;;1.60;;
16845;SDS011;8539;53.188;8.696;2023-07-30T15:43:19;3.80;;;1.17;;
16845;SDS011;8539;53.188;8.696;2023-07-30T15:45:45;5.00;;;1.70;;
16845;SDS011;8539;53.188;8.696;2023-07-30T15:48:11;5.43;;;2.08;;
16845;SDS011;8539;53.188;8.696;2023-07-30T15:50:38;9.07;;;2.50;;
16845;SDS011;8539;53.188;8.696;2023-07-30T15:53:04;2.83;;;1.20;;
16845;SDS011;8539;53.188;8.696;2023-07-30T15:55:32;5.00;;;2.08;;
16845;SDS011;8539;53.188;8.696;2023-07-30T15:57:59;6.85;;;1.77;;
16845;SDS011;8539;53.188;8.696;2023-07-30T16:05:36;5.30;;;1.42;;
16845;SDS011;8539;53.188;8.696;2023-07-30T16:08:05;6.13;;;2.85;;
16845;SDS011;8539;53.188;8.696;2023-07-30T16:10:31;4.90;;;1.58;;
16845;SDS011;8539;53.188;8.696;2023-07-30T16:12:57;4.55;;;1.20;;
16845;SDS011;8539;53.188;8.696;2023-07-30T16:15:27;4.45;;;1.17;;
16845;SDS011;8539;53.188;8.696;2023-07-30T16:17:53;4.65;;;1.15;;
16845;SDS011;8539;53.188;8.696;2023-07-30T16:20:22;6.07;;;1.42;;
16845;SDS011;8539;53.188;8.696;2023-07-30T16:25:25;2.72;;;1.30;;
16845;SDS011;8539;53.188;8.696;2023-07-30T16:27:51;6.93;;;1.48;;
16845;SDS011;8539;53.188;8.696;2023-07-30T16:30:20;7.57;;;1.38;;
16845;SDS011;8539;53.188;8.696;2023-07-30T16:32:46;1.85;;;0.90;;
16845;SDS011;8539;53.188;8.696;2023-07-30T16:40:13;5.78;;;1.25;;
16845;SDS011;8539;53.188;8.696;2023-07-30T16:42:39;3.90;;;1.63;;
16845;SDS011;8539;53.188;8.696;2023-07-30T16:45:05;5.05;;;2.75;;
16845;SDS011;8539;53.188;8.696;2023-07-30T16:47:32;2.95;;;1.50;;
16845;SDS011;8539;53.188;8.696;2023-07-30T16:49:58;4.03;;;1.55;;
16845;SDS011;8539;53.188;8.696;2023-07-30T16:52:28;3.53;;;1.27;;
16845;SDS011;8539;53.188;8.696;2023-07-30T16:55:03;3.05;;;1.08;;
16845;SDS011;8539;53.188;8.696;2023-07-30T16:57:53;2.95;;;1.15;;
16845;SDS011;8539;53.188;8.696;2023-07-30T17:00:59;5.43;;;1.70;;
16845;SDS011;8539;53.188;8.696;2023-07-30T17:03:43;1.92;;;0.88;;
16845;SDS011;8539;53.188;8.696;2023-07-30T17:06:15;5.13;;;1.67;;
16845;SDS011;8539;53.188;8.696;2023-07-30T17:08:53;6.40;;;1.35;;
16845;SDS011;8539;53.188;8.696;2023-07-30T17:11:39;3.58;;;0.98;;
16845;SDS011;8539;53.188;8.696;2023-07-30T17:14:18;5.55;;;1.25;;
16845;SDS011;8539;53.188;8.696;2023-07-30T17:17:30;3.53;;;1.25;;
16845;SDS011;8539;53.188;8.696;2023-07-30T17:19:57;5.18;;;1.02;;
16845;SDS011;8539;53.188;8.696;2023-07-30T17:24:56;2.22;;;1.08;;
16845;SDS011;8539;53.188;8.696;2023-07-30T17:30:01;4.38;;;1.33;;
16845;SDS011;8539;53.188;8.696;2023-07-30T17:32:54;7.20;;;1.67;;
16845;SDS011;8539;53.188;8.696;2023-07-30T17:35:23;2.97;;;1.35;;
16845;SDS011;8539;53.188;8.696;2023-07-30T17:38:10;4.97;;;1.15;;
16845;SDS011;8539;53.188;8.696;2023-07-30T17:40:52;6.03;;;1.60;;
16845;SDS011;8539;53.188;8.696;2023-07-30T17:46:53;2.03;;;1.27;;
16845;SDS011;8539;53.188;8.696;2023-07-30T17:49:27;3.15;;;1.33;;
16845;SDS011;8539;53.188;8.696;2023-07-30T17:51:58;5.63;;;1.33;;
16845;SDS011;8539;53.188;8.696;2023-07-30T17:54:25;2.85;;;1.38;;
16845;SDS011;8539;53.188;8.696;2023-07-30T17:56:51;3.58;;;1.38;;
16845;SDS011;8539;53.188;8.696;2023-07-30T18:02:18;6.65;;;1.73;;
16845;SDS011;8539;53.188;8.696;2023-07-30T18:04:47;4.18;;;1.67;;
16845;SDS011;8539;53.188;8.696;2023-07-30T18:07:14;7.78;;;1.63;;
16845;SDS011;8539;53.188;8.696;2023-07-30T18:09:46;4.97;;;1.52;;
16845;SDS011;8539;53.188;8.696;2023-07-30T18:12:13;10.07;;;1.20;;
16845;SDS011;8539;53.188;8.696;2023-07-30T18:14:42;8.25;;;1.63;;
16845;SDS011;8539;53.188;8.696;2023-07-30T18:17:29;6.85;;;1.83;;
16845;SDS011;8539;53.188;8.696;2023-07-30T18:19:55;6.57;;;1.52;;
16845;SDS011;8539;53.188;8.696;2023-07-30T18:22:21;8.02;;;1.63;;
16845;SDS011;8539;53.188;8.696;2023-07-30T18:24:47;6.47;;;1.45;;
16845;SDS011;8539;53.188;8.696;2023-07-30T18:27:19;3.45;;;1.23;;
16845;SDS011;8539;53.188;8.696;2023-07-30T18:29:46;4.55;;;1.20;;
16845;SDS011;8539;53.188;8.696;2023-07-30T18:32:12;5.07;;;1.27;;
16845;SDS011;8539;53.188;8.696;2023-07-30T18:34:47;4.90;;;1.35;;
16845;SDS011;8539;53.188;8.696;2023-07-30T18:37:21;8.27;;;1.50;;
16845;SDS011;8539;53.188;8.696;2023-07-30T18:39:50;4.63;;;2.15;;